createdAt,value
2023-04-21T00:00:41.673Z,16.00
2023-04-21T00:05:44.573Z,16.60
2023-04-21T00:10:47.679Z,14.40
2023-04-21T00:15:52.048Z,14.80
2023-04-21T00:20:55.173Z,14.00
2023-04-21T00:25:58.084Z,17.20
2023-04-21T00:31:02.490Z,16.80
2023-04-21T00:36:06.102Z,15.40
2023-04-21T00:41:08.845Z,17.00
2023-04-21T00:46:15.461Z,14.40
2023-04-21T00:51:18.473Z,14.20
2023-04-21T00:56:21.618Z,15.00
2023-04-21T01:01:25.907Z,16.00
2023-04-21T01:06:29.337Z,15.60
2023-04-21T01:11:32.999Z,12.60
2023-04-21T01:16:38.385Z,15.00
2023-04-21T01:21:42.952Z,15.40
2023-04-21T01:26:49.424Z,15.20
2023-04-21T01:31:52.217Z,15.00
2023-04-21T01:36:56.478Z,13.00
2023-04-21T01:41:59.361Z,14.40
2023-04-21T01:47:02.135Z,15.00
2023-04-21T01:52:06.506Z,15.00
2023-04-21T01:57:09.412Z,14.00
2023-04-21T02:02:12.525Z,13.60
2023-04-21T02:07:16.744Z,14.80
2023-04-21T02:12:19.935Z,13.80
2023-04-21T02:17:22.749Z,15.20
2023-04-21T02:22:26.902Z,13.80
2023-04-21T02:27:31.138Z,12.80
2023-04-21T02:32:35.894Z,15.00
2023-04-21T02:37:41.930Z,12.40
2023-04-21T02:42:44.714Z,13.80
2023-04-21T02:47:47.570Z,12.40
2023-04-21T02:52:51.834Z,13.60
2023-04-21T02:57:54.619Z,14.00
2023-04-21T03:02:59.298Z,13.20
2023-04-21T03:08:03.986Z,12.80
2023-04-21T03:13:06.720Z,13.60
2023-04-21T03:18:09.482Z,12.40
2023-04-21T03:23:13.615Z,13.60
2023-04-21T03:28:16.917Z,13.40
2023-04-21T03:33:19.668Z,13.80
2023-04-21T03:38:23.912Z,11.00
2023-04-21T03:43:26.758Z,13.80
2023-04-21T03:48:29.772Z,12.80
2023-04-21T03:53:33.922Z,12.00
2023-04-21T03:58:36.954Z,12.00
2023-04-21T04:03:40.014Z,13.80
2023-04-21T04:08:44.248Z,12.00
2023-04-21T04:13:46.999Z,11.20
2023-04-21T04:18:50.997Z,13.80
2023-04-21T04:23:55.293Z,14.80
2023-04-21T04:28:58.177Z,11.40
2023-04-21T04:34:01.357Z,13.80
2023-04-21T04:39:06.360Z,13.20
2023-04-21T04:44:11.239Z,12.40
2023-04-21T04:49:14.101Z,12.40
2023-04-21T04:54:18.632Z,14.00
2023-04-21T04:59:21.728Z,14.00
2023-04-21T05:04:25.009Z,11.60
2023-04-21T05:09:29.441Z,14.20
2023-04-21T05:14:32.405Z,12.00
2023-04-21T05:19:37.191Z,12.00
2023-04-21T05:24:42.388Z,11.40
2023-04-21T05:29:45.257Z,12.40
2023-04-21T05:34:48.113Z,11.20
2023-04-21T05:39:52.294Z,11.00
2023-04-21T05:44:55.381Z,11.80
2023-04-21T05:49:58.205Z,11.20
2023-04-21T05:55:02.750Z,12.00
2023-04-21T06:00:07.418Z,11.60
2023-04-21T06:05:10.827Z,11.20
2023-04-21T06:10:16.243Z,11.20
2023-04-21T06:15:19.075Z,10.40
2023-04-21T06:20:21.944Z,10.40
2023-04-21T06:25:26.275Z,9.60
2023-04-21T06:30:29.174Z,12.40
2023-04-21T06:35:32.063Z,12.00
2023-04-21T06:40:36.465Z,11.60
2023-04-21T06:45:39.390Z,11.00
2023-04-21T06:50:44.413Z,11.00
2023-04-21T06:55:48.758Z,12.20
2023-04-21T07:00:51.577Z,15.00
2023-04-21T07:05:54.699Z,14.60
2023-04-21T07:10:59.030Z,16.00
2023-04-21T07:16:02.369Z,14.80
2023-04-21T07:21:05.277Z,15.00
2023-04-21T07:26:09.460Z,16.20
2023-04-21T07:31:12.213Z,15.00
2023-04-21T07:36:15.498Z,14.20
2023-04-21T07:41:19.642Z,15.80
2023-04-21T07:46:24.246Z,15.00
2023-04-21T07:51:27.786Z,14.40
2023-04-21T07:56:32.567Z,14.60
2023-04-21T08:01:35.510Z,15.00
2023-04-21T08:06:38.752Z,16.00
2023-04-21T08:11:43.295Z,17.00
2023-04-21T08:16:46.466Z,17.00
2023-04-21T08:21:49.509Z,15.80
2023-04-21T08:26:53.669Z,16.80
2023-04-21T08:31:56.688Z,13.80
2023-04-21T08:36:59.921Z,15.60
2023-04-21T08:42:04.227Z,15.00
2023-04-21T08:47:07.218Z,14.80
2023-04-21T08:52:10.072Z,14.20
2023-04-21T08:57:16.147Z,13.00
2023-04-21T09:02:20.207Z,14.80
2023-04-21T09:07:32.056Z,15.00
2023-04-21T09:12:36.309Z,12.60
2023-04-21T09:17:39.242Z,12.00
2023-04-21T09:22:42.095Z,14.20
2023-04-21T09:27:46.652Z,12.00
2023-04-21T09:32:50.126Z,14.00
2023-04-21T09:37:53.149Z,14.00
2023-04-21T09:43:00.803Z,12.20
2023-04-21T09:48:04.827Z,12.80
2023-04-21T09:53:07.753Z,14.00
2023-04-21T09:58:11.984Z,12.00
2023-04-21T10:03:14.896Z,11.20
2023-04-21T10:08:17.842Z,13.20
2023-04-21T10:13:22.113Z,12.00
2023-04-21T10:18:25.189Z,13.00
2023-04-21T10:23:32.219Z,12.00
2023-04-21T10:28:43.191Z,11.00
2023-04-21T10:34:29.381Z,11.20
2023-04-21T10:39:35.735Z,11.60
2023-04-21T10:44:42.666Z,10.20
2023-04-21T10:49:45.484Z,12.00
2023-04-21T10:55:06.568Z,13.20
2023-04-21T11:00:12.389Z,11.00
2023-04-21T11:05:15.137Z,11.20
2023-04-21T11:10:17.977Z,11.40
2023-04-21T11:15:22.166Z,10.40
2023-04-21T11:20:24.938Z,11.40
2023-04-21T11:25:27.848Z,11.40
2023-04-21T11:30:34.510Z,10.80
2023-04-21T11:35:41.000Z,9.00
2023-04-21T11:40:48.052Z,8.80
2023-04-21T11:45:52.503Z,9.00
2023-04-21T11:50:55.474Z,9.20
2023-04-21T11:55:58.634Z,11.80
2023-04-21T12:01:10.244Z,10.20
2023-04-21T12:06:21.604Z,10.20
2023-04-21T12:11:24.822Z,9.00
2023-04-21T12:16:29.745Z,9.40
2023-04-21T12:21:32.611Z,10.20
2023-04-21T12:26:35.482Z,8.60
2023-04-21T12:31:39.669Z,9.00
2023-04-21T12:36:42.440Z,8.60
2023-04-21T12:41:45.329Z,9.40
2023-04-21T12:46:49.913Z,9.00
2023-04-21T12:51:52.809Z,9.40
2023-04-21T12:56:55.833Z,9.00
2023-04-21T13:02:00.055Z,9.00
2023-04-21T13:07:03.020Z,10.00
2023-04-21T13:12:05.924Z,9.40
2023-04-21T13:17:11.269Z,8.80
2023-04-21T13:22:14.493Z,9.00
2023-04-21T13:27:17.265Z,9.00
2023-04-21T13:32:22.647Z,9.00
2023-04-21T13:37:25.592Z,9.20
2023-04-21T13:42:28.655Z,8.00
2023-04-21T13:47:32.987Z,9.00
2023-04-21T13:52:36.565Z,8.20
2023-04-21T13:57:39.433Z,9.60
2023-04-21T14:02:44.007Z,7.80
2023-04-21T14:07:47.003Z,8.00
2023-04-21T14:12:49.841Z,7.80
2023-04-21T14:17:54.559Z,9.00
2023-04-21T14:22:57.498Z,7.00
2023-04-21T14:28:00.524Z,7.00
2023-04-21T14:33:05.130Z,6.00
2023-04-21T14:38:08.397Z,7.00
2023-04-21T14:43:11.980Z,7.00
2023-04-21T14:48:16.130Z,6.40
2023-04-21T14:53:19.072Z,7.20
2023-04-21T14:58:22.013Z,5.40
2023-04-21T15:03:26.458Z,5.60
2023-04-21T15:08:29.351Z,7.00
2023-04-21T15:13:32.300Z,7.40
2023-04-21T15:18:36.464Z,6.20
2023-04-21T15:23:39.286Z,6.60
2023-04-21T15:28:42.251Z,6.00
2023-04-21T15:33:46.345Z,6.00
2023-04-21T15:38:49.349Z,6.40
2023-04-21T15:43:52.129Z,7.00
2023-04-21T15:48:56.489Z,7.00
2023-04-21T15:53:59.367Z,7.20
2023-04-21T15:59:03.691Z,7.20
2023-04-21T16:04:08.095Z,6.80
2023-04-21T16:09:11.162Z,7.20
2023-04-21T16:14:16.422Z,6.00
2023-04-21T16:19:20.908Z,7.00
2023-04-21T16:24:23.768Z,7.60
2023-04-21T16:29:26.758Z,8.80
2023-04-21T16:34:30.975Z,7.00
2023-04-21T16:39:33.981Z,9.80
2023-04-21T16:44:36.986Z,11.00
2023-04-21T16:49:41.462Z,8.60
2023-04-21T16:54:44.259Z,9.80
2023-04-21T16:59:47.404Z,10.80
2023-04-21T17:04:51.788Z,10.00
2023-04-21T17:09:54.683Z,9.40
2023-04-21T17:14:57.712Z,10.00
2023-04-21T17:20:01.829Z,10.20
2023-04-21T17:25:04.824Z,10.00
2023-04-21T17:30:09.175Z,10.00
2023-04-21T17:35:13.368Z,10.00
2023-04-21T17:40:16.164Z,11.00
2023-04-21T17:45:19.193Z,11.20
2023-04-21T17:50:27.182Z,12.00
2023-04-21T17:55:31.030Z,11.00
2023-04-21T18:00:42.334Z,12.00
2023-04-21T18:05:47.451Z,11.60
2023-04-21T18:10:50.336Z,11.00
2023-04-21T18:15:53.121Z,11.00
2023-04-21T18:20:59.658Z,10.80
2023-04-21T18:26:02.431Z,11.00
2023-04-21T18:31:05.299Z,11.40
2023-04-21T18:36:09.945Z,11.00
2023-04-21T18:41:12.791Z,11.60
2023-04-21T18:46:16.648Z,10.60
2023-04-21T18:51:20.796Z,10.80
2023-04-21T18:56:23.617Z,11.20
2023-04-21T19:01:31.933Z,11.00
2023-04-21T19:06:40.885Z,11.00
2023-04-21T19:11:43.768Z,10.00
2023-04-21T19:16:48.623Z,11.00
2023-04-21T19:21:52.901Z,11.00
2023-04-21T19:26:55.813Z,12.40
2023-04-21T19:31:58.889Z,11.00
2023-04-21T19:37:03.292Z,11.00
2023-04-21T19:42:06.248Z,11.80
2023-04-21T19:47:09.344Z,10.80
2023-04-21T19:52:13.693Z,11.00
2023-04-21T19:57:17.436Z,11.00
2023-04-21T20:02:24.399Z,11.40
2023-04-21T20:07:28.728Z,11.00
2023-04-21T20:12:31.442Z,11.20
2023-04-21T20:17:34.353Z,11.00
2023-04-21T20:22:38.543Z,10.60
2023-04-21T20:27:41.516Z,11.00
2023-04-21T20:32:44.893Z,12.00
2023-04-21T20:37:50.305Z,10.60
2023-04-21T20:42:53.053Z,9.00
2023-04-21T20:47:55.843Z,10.60
2023-04-21T20:53:00.047Z,9.60
2023-04-21T20:58:02.848Z,10.20
2023-04-21T21:03:09.940Z,10.60
2023-04-21T21:08:15.240Z,11.00
2023-04-21T21:13:18.078Z,11.20
2023-04-21T21:18:20.832Z,10.20
2023-04-21T21:23:25.078Z,10.00
2023-04-21T21:28:28.051Z,10.20
2023-04-21T21:33:30.822Z,10.00
2023-04-21T21:38:35.034Z,9.20
2023-04-21T21:43:40.785Z,10.40
2023-04-21T21:48:43.568Z,9.20
2023-04-21T21:53:47.666Z,9.00
2023-04-21T21:58:50.514Z,9.20
2023-04-21T22:03:53.762Z,9.80
2023-04-21T22:08:58.329Z,11.00
2023-04-21T22:14:14.545Z,10.00
2023-04-21T22:19:26.040Z,11.00
2023-04-21T22:24:30.397Z,9.80
2023-04-21T22:29:33.336Z,10.60
2023-04-21T22:34:36.074Z,8.40
2023-04-21T22:39:40.455Z,10.20
2023-04-21T22:44:43.722Z,9.20
2023-04-21T22:49:46.485Z,9.20
2023-04-21T22:54:50.625Z,9.40
2023-04-21T22:59:53.454Z,10.00
2023-04-21T23:04:56.230Z,8.00
2023-04-21T23:10:00.390Z,9.80
2023-04-21T23:15:03.173Z,10.00
2023-04-21T23:20:06.978Z,8.80
2023-04-21T23:25:11.556Z,9.80
2023-04-21T23:30:14.569Z,8.20
2023-04-21T23:35:17.614Z,7.60
2023-04-21T23:40:21.709Z,8.60
2023-04-21T23:45:24.497Z,10.00
2023-04-21T23:50:27.287Z,10.00
2023-04-21T23:55:31.417Z,10.00
